Time;durP1;ratioP1;P1;durP2;ratioP2;P2;SDS_P1;SDS_P2;PMS_P1;PMS_P2;Temp;Humidity;BMP_temperature;BMP_pressure;BME280_temperature;BME280_humidity;BME280_pressure;Samples;Min_cycle;Max_cycle;Signal;HPM_P1;HPM_P2
2023/04/18 00:00:10;;;;;;;7.70;6.93;;;;;;;;;;10108594;28;20094;-64
2023/04/18 00:05:07;;;;;;;6.38;5.78;;;;;;;;;;10143053;28;20044;-64
2023/04/18 00:10:02;;;;;;;6.50;5.22;;;;;;;;;;10128866;28;20045;-64
2023/04/18 00:14:57;;;;;;;5.85;5.25;;;;;;;;;;10115429;28;20417;-64
2023/04/18 00:19:50;;;;;;;5.00;4.50;;;;;;;;;;10140864;28;20056;-64
2023/04/18 00:24:44;;;;;;;6.00;5.40;;;;;;;;;;10141447;28;20075;-64
2023/04/18 00:29:39;;;;;;;5.45;4.78;;;;;;;;;;10137694;28;20080;-64
2023/04/18 00:34:34;;;;;;;6.47;4.90;;;;;;;;;;10150104;28;20495;-64
2023/04/18 00:39:28;;;;;;;7.57;5.53;;;;;;;;;;10142530;28;20135;-64
2023/04/18 00:44:22;;;;;;;5.60;5.10;;;;;;;;;;10120223;28;20075;-64
2023/04/18 00:49:15;;;;;;;6.32;5.00;;;;;;;;;;10135281;28;20072;-65
2023/04/18 00:54:11;;;;;;;5.55;5.05;;;;;;;;;;10136517;28;20037;-64
2023/04/18 00:59:06;;;;;;;10.43;5.82;;;;;;;;;;10137497;28;20065;-64
2023/04/18 01:03:59;;;;;;;5.43;4.40;;;;;;;;;;10119445;28;20041;-64
2023/04/18 01:08:55;;;;;;;5.05;4.55;;;;;;;;;;10118567;28;20077;-64
2023/04/18 01:13:59;;;;;;;6.28;4.57;;;;;;;;;;10092456;28;20148;-64
2023/04/18 01:18:52;;;;;;;5.72;5.22;;;;;;;;;;10129287;28;20414;-64
2023/04/18 01:23:47;;;;;;;7.43;5.03;;;;;;;;;;10117534;28;20131;-64
2023/04/18 01:28:41;;;;;;;5.75;5.15;;;;;;;;;;10124070;28;20606;-64
2023/04/18 01:33:33;;;;;;;5.72;5.13;;;;;;;;;;10129085;28;20080;-64
2023/04/18 01:38:28;;;;;;;5.57;4.90;;;;;;;;;;10140233;28;20071;-63
2023/04/18 01:43:21;;;;;;;5.20;4.70;;;;;;;;;;10110386;28;20079;-64
2023/04/18 01:48:14;;;;;;;7.60;5.05;;;;;;;;;;10127748;28;20148;-64
2023/04/18 01:53:07;;;;;;;5.22;4.32;;;;;;;;;;10146720;28;20045;-65
2023/04/18 01:58:00;;;;;;;5.57;5.07;;;;;;;;;;10130956;28;20048;-65
2023/04/18 02:02:55;;;;;;;4.63;4.15;;;;;;;;;;10123075;28;20095;-65
2023/04/18 02:07:53;;;;;;;5.85;4.65;;;;;;;;;;10159551;28;20048;-66
2023/04/18 02:12:47;;;;;;;5.70;5.20;;;;;;;;;;10132153;28;20486;-65
2023/04/18 02:17:40;;;;;;;5.60;5.00;;;;;;;;;;10136476;28;20545;-65
2023/04/18 02:22:34;;;;;;;5.47;4.45;;;;;;;;;;10141802;28;20083;-65
2023/04/18 02:27:31;;;;;;;5.90;4.82;;;;;;;;;;10129758;28;20051;-64
2023/04/18 02:32:24;;;;;;;6.32;4.80;;;;;;;;;;10167692;28;20056;-65
2023/04/18 02:37:17;;;;;;;9.35;4.90;;;;;;;;;;10135111;28;20052;-64
2023/04/18 02:42:11;;;;;;;4.30;3.92;;;;;;;;;;10135957;28;20048;-64
2023/04/18 02:47:05;;;;;;;5.80;4.43;;;;;;;;;;10126351;28;20503;-65
2023/04/18 02:52:02;;;;;;;7.60;5.40;;;;;;;;;;10138670;28;20491;-65
2023/04/18 02:56:55;;;;;;;5.82;4.47;;;;;;;;;;10126576;28;20454;-65
2023/04/18 03:01:59;;;;;;;4.32;3.72;;;;;;;;;;10129238;28;20052;-65
2023/04/18 03:06:52;;;;;;;4.55;3.90;;;;;;;;;;10124184;28;20052;-66
2023/04/18 03:11:46;;;;;;;5.82;4.63;;;;;;;;;;10158458;28;20126;-66
2023/04/18 03:16:40;;;;;;;5.80;4.20;;;;;;;;;;10134705;28;20072;-66
2023/04/18 03:21:36;;;;;;;4.57;3.88;;;;;;;;;;10139152;28;20052;-66
2023/04/18 03:26:30;;;;;;;4.43;4.03;;;;;;;;;;10144012;28;20052;-65
2023/04/18 03:31:25;;;;;;;4.75;4.13;;;;;;;;;;10133548;28;20095;-66
2023/04/18 03:36:17;;;;;;;4.35;3.65;;;;;;;;;;10131774;28;20052;-66
2023/04/18 03:41:12;;;;;;;4.72;3.72;;;;;;;;;;10097035;28;20049;-64
2023/04/18 03:46:06;;;;;;;10.88;5.78;;;;;;;;;;10115806;28;20058;-64
2023/04/18 03:51:00;;;;;;;4.70;4.20;;;;;;;;;;10078985;28;20049;-64
2023/04/18 03:55:56;;;;;;;7.25;4.07;;;;;;;;;;10061019;28;20045;-64
2023/04/18 04:01:03;;;;;;;5.28;4.07;;;;;;;;;;10071127;28;20050;-63
2023/04/18 04:05:55;;;;;;;4.30;3.90;;;;;;;;;;10081605;28;20140;-64
2023/04/18 04:10:49;;;;;;;4.53;4.10;;;;;;;;;;10089387;28;20117;-64
2023/04/18 04:15:42;;;;;;;4.55;3.92;;;;;;;;;;10063331;28;20057;-64
2023/04/18 04:20:36;;;;;;;4.70;4.10;;;;;;;;;;10060424;28;20045;-64
2023/04/18 04:25:39;;;;;;;4.82;3.83;;;;;;;;;;10062881;28;20499;-63
2023/04/18 04:30:42;;;;;;;9.50;4.93;;;;;;;;;;10092675;28;20064;-64
2023/04/18 04:35:35;;;;;;;5.47;4.50;;;;;;;;;;10068760;28;20140;-64
2023/04/18 04:40:29;;;;;;;5.63;4.13;;;;;;;;;;10079471;28;20155;-64
2023/04/18 04:45:31;;;;;;;5.38;3.97;;;;;;;;;;10076100;28;20486;-64
2023/04/18 04:50:25;;;;;;;5.32;4.82;;;;;;;;;;10150489;28;20472;-64
2023/04/18 04:55:18;;;;;;;8.95;4.70;;;;;;;;;;10111247;28;20053;-65
2023/04/18 05:00:19;;;;;;;5.53;4.43;;;;;;;;;;10117087;28;20071;-64
2023/04/18 05:05:14;;;;;;;5.75;4.63;;;;;;;;;;10132200;28;20070;-64
2023/04/18 05:10:09;;;;;;;7.43;4.75;;;;;;;;;;10142893;28;20082;-66
2023/04/18 05:15:03;;;;;;;4.90;4.45;;;;;;;;;;10141712;28;20089;-64
2023/04/18 05:19:56;;;;;;;9.38;6.28;;;;;;;;;;10141621;28;20144;-63
2023/04/18 05:24:50;;;;;;;7.88;5.20;;;;;;;;;;10141550;28;20048;-64
2023/04/18 05:29:43;;;;;;;9.63;4.75;;;;;;;;;;10142420;28;20391;-64
2023/04/18 05:34:38;;;;;;;5.22;4.15;;;;;;;;;;10136728;28;20060;-64
2023/04/18 05:39:30;;;;;;;4.43;4.03;;;;;;;;;;10126681;28;20475;-65
2023/04/18 05:44:25;;;;;;;5.85;4.25;;;;;;;;;;10113062;28;20447;-62
2023/04/18 05:49:19;;;;;;;6.80;5.25;;;;;;;;;;10139617;28;20068;-63
2023/04/18 05:54:13;;;;;;;5.63;5.10;;;;;;;;;;10146779;28;20079;-65
2023/04/18 05:59:07;;;;;;;6.40;5.35;;;;;;;;;;10133187;28;20078;-64
2023/04/18 06:04:01;;;;;;;10.13;5.63;;;;;;;;;;10138194;28;20049;-64
2023/04/18 06:08:56;;;;;;;7.63;5.68;;;;;;;;;;10132037;28;20076;-63
2023/04/18 06:13:54;;;;;;;5.95;5.32;;;;;;;;;;10122669;28;20044;-63
2023/04/18 06:18:48;;;;;;;5.60;5.03;;;;;;;;;;10134811;28;20429;-63
2023/04/18 06:23:41;;;;;;;8.50;5.70;;;;;;;;;;10137034;28;20041;-63
2023/04/18 06:28:35;;;;;;;5.68;5.07;;;;;;;;;;10133924;28;20052;-63
2023/04/18 06:33:29;;;;;;;9.40;6.30;;;;;;;;;;10122607;28;20099;-63
2023/04/18 06:38:22;;;;;;;9.70;5.32;;;;;;;;;;10125078;28;20045;-63
2023/04/18 06:43:16;;;;;;;9.85;5.32;;;;;;;;;;10123339;28;20044;-63
2023/04/18 06:48:10;;;;;;;5.68;5.10;;;;;;;;;;10110522;28;20056;-64
2023/04/18 06:53:03;;;;;;;10.32;6.65;;;;;;;;;;10125252;28;20041;-63
2023/04/18 06:57:55;;;;;;;8.35;6.13;;;;;;;;;;10137147;28;20118;-62
2023/04/18 07:02:49;;;;;;;7.53;6.45;;;;;;;;;;10128202;28;20045;-63
2023/04/18 07:07:42;;;;;;;9.25;5.97;;;;;;;;;;10104686;28;20488;-63
2023/04/18 07:12:36;;;;;;;9.38;6.82;;;;;;;;;;10138513;28;20399;-63
2023/04/18 07:17:30;;;;;;;7.35;5.22;;;;;;;;;;10139666;28;20045;-63
2023/04/18 07:22:23;;;;;;;8.93;6.55;;;;;;;;;;10142461;28;20044;-63
2023/04/18 07:27:16;;;;;;;8.85;6.00;;;;;;;;;;10150893;28;20045;-63
2023/04/18 07:32:09;;;;;;;9.35;6.07;;;;;;;;;;10139759;28;20055;-63
2023/04/18 07:37:03;;;;;;;6.55;4.53;;;;;;;;;;10151622;28;20133;-63
2023/04/18 07:41:57;;;;;;;5.70;4.70;;;;;;;;;;10143889;28;20049;-63
2023/04/18 07:46:51;;;;;;;8.63;5.82;;;;;;;;;;10129136;28;20136;-63
2023/04/18 07:51:43;;;;;;;10.70;4.70;;;;;;;;;;10129308;28;20072;-64
2023/04/18 07:56:37;;;;;;;7.70;5.55;;;;;;;;;;10130469;28;20091;-63
2023/04/18 08:01:30;;;;;;;12.13;6.43;;;;;;;;;;10138043;28;20052;-63
2023/04/18 08:06:25;;;;;;;8.75;5.80;;;;;;;;;;10128341;28;20397;-63
2023/04/18 08:11:19;;;;;;;11.73;7.22;;;;;;;;;;10120453;28;20053;-64
2023/04/18 08:16:15;;;;;;;10.45;6.40;;;;;;;;;;10124832;28;20053;-63
2023/04/18 08:21:09;;;;;;;9.55;6.88;;;;;;;;;;10139019;28;20575;-63
2023/04/18 08:26:03;;;;;;;10.32;6.85;;;;;;;;;;10126913;28;20567;-63
2023/04/18 08:30:57;;;;;;;11.32;6.97;;;;;;;;;;10125575;28;20044;-63
2023/04/18 08:35:52;;;;;;;13.68;6.95;;;;;;;;;;10150321;28;20052;-63
2023/04/18 08:40:46;;;;;;;10.07;6.03;;;;;;;;;;10133779;28;20072;-64
2023/04/18 08:45:42;;;;;;;11.50;6.70;;;;;;;;;;10133298;28;20049;-64
2023/04/18 08:50:36;;;;;;;9.50;6.60;;;;;;;;;;10094868;28;20397;-64
2023/04/18 08:55:29;;;;;;;10.07;6.45;;;;;;;;;;10092034;28;20488;-64
2023/04/18 09:00:22;;;;;;;13.20;6.28;;;;;;;;;;10074599;28;20050;-65
2023/04/18 09:05:21;;;;;;;8.93;6.28;;;;;;;;;;10097099;28;20044;-64
2023/04/18 09:10:25;;;;;;;7.35;5.00;;;;;;;;;;10088769;28;20416;-65
2023/04/18 09:15:22;;;;;;;6.45;5.20;;;;;;;;;;10086610;28;20571;-63
2023/04/18 09:20:42;;;;;;;6.88;5.45;;;;;;;;;;10079873;28;20042;-64
2023/04/18 09:25:45;;;;;;;5.32;4.03;;;;;;;;;;10078541;28;20045;-64
2023/04/18 09:30:40;;;;;;;6.72;4.60;;;;;;;;;;10109292;28;20053;-64
2023/04/18 09:35:35;;;;;;;8.10;4.05;;;;;;;;;;10107912;28;20555;-64
2023/04/18 09:40:28;;;;;;;4.90;4.22;;;;;;;;;;10107818;28;20403;-64
2023/04/18 09:45:23;;;;;;;5.07;4.03;;;;;;;;;;10088570;28;20625;-64
2023/04/18 09:50:17;;;;;;;8.43;5.20;;;;;;;;;;10081066;28;20424;-63
2023/04/18 09:55:16;;;;;;;5.13;4.53;;;;;;;;;;10080388;28;20072;-64
2023/04/18 10:00:22;;;;;;;5.28;4.63;;;;;;;;;;10071237;28;20060;-64
2023/04/18 10:05:17;;;;;;;4.82;4.30;;;;;;;;;;10081141;28;20524;-65
2023/04/18 10:10:13;;;;;;;5.10;4.40;;;;;;;;;;10103338;28;20136;-64
2023/04/18 10:15:10;;;;;;;5.22;4.72;;;;;;;;;;10093018;28;20049;-64
2023/04/18 10:20:12;;;;;;;;;;;;;;;;;;10093504;28;20403;-64
2023/04/18 10:25:06;;;;;;;6.03;5.43;;;;;;;;;;10089866;28;20358;-64
2023/04/18 10:29:59;;;;;;;5.15;4.65;;;;;;;;;;10094165;28;20084;-64
2023/04/18 10:34:53;;;;;;;9.27;5.72;;;;;;;;;;10069134;28;20488;-64
2023/04/18 10:39:50;;;;;;;7.20;4.85;;;;;;;;;;10089831;28;20045;-66
2023/04/18 10:44:43;;;;;;;3.50;3.08;;;;;;;;;;10105860;28;20051;-64
2023/04/18 10:49:37;;;;;;;3.50;3.20;;;;;;;;;;10118976;28;20173;-65
2023/04/18 10:54:54;;;;;;;3.85;3.17;;;;;;;;;;10122942;28;20128;-65
2023/04/18 10:59:51;;;;;;;4.50;3.88;;;;;;;;;;10131697;28;20048;-64
2023/04/18 11:04:53;;;;;;;5.13;4.63;;;;;;;;;;10133265;28;20099;-64
2023/04/18 11:09:55;;;;;;;3.40;3.10;;;;;;;;;;10128690;28;20135;-64
2023/04/18 11:14:53;;;;;;;4.15;3.45;;;;;;;;;;10105742;28;20045;-64
2023/04/18 11:19:46;;;;;;;4.55;2.95;;;;;;;;;;10114394;28;20048;-65
2023/04/18 11:24:39;;;;;;;4.43;3.45;;;;;;;;;;10131716;28;20131;-65
2023/04/18 11:29:34;;;;;;;3.40;2.97;;;;;;;;;;10100818;28;20068;-65
2023/04/18 11:34:29;;;;;;;3.50;3.20;;;;;;;;;;10131217;28;20051;-66
2023/04/18 11:39:23;;;;;;;3.38;3.08;;;;;;;;;;10127011;28;20541;-64
2023/04/18 11:44:22;;;;;;;5.38;4.25;;;;;;;;;;10126777;28;20075;-65
2023/04/18 11:49:24;;;;;;;;;;;;;;;;;;10112632;28;20057;-65
2023/04/18 11:54:39;;;;;;;3.75;3.35;;;;;;;;;;10131419;28;19920;-64
2023/04/18 11:59:32;;;;;;;3.15;2.92;;;;;;;;;;10123694;28;20036;-65
2023/04/18 12:04:27;;;;;;;5.47;4.13;;;;;;;;;;10145387;28;20047;-65
2023/04/18 12:09:23;;;;;;;4.78;3.40;;;;;;;;;;10138429;28;20450;-65
2023/04/18 12:14:21;;;;;;;4.65;3.97;;;;;;;;;;10133510;28;20056;-65
2023/04/18 12:19:14;;;;;;;4.03;3.67;;;;;;;;;;10145083;28;20094;-64
2023/04/18 12:24:28;;;;;;;6.75;4.38;;;;;;;;;;10124427;28;20102;-65
2023/04/18 12:29:22;;;;;;;4.78;4.13;;;;;;;;;;10121255;28;20045;-64
2023/04/18 12:34:15;;;;;;;5.85;4.05;;;;;;;;;;10128533;28;20041;-64
2023/04/18 12:39:09;;;;;;;5.78;4.50;;;;;;;;;;10115965;28;20047;-65
2023/04/18 12:44:04;;;;;;;4.95;4.38;;;;;;;;;;10112367;28;20087;-64
2023/04/18 12:48:59;;;;;;;5.88;4.65;;;;;;;;;;10080418;28;20059;-65
2023/04/18 12:53:53;;;;;;;4.70;4.30;;;;;;;;;;10091606;28;20050;-64
2023/04/18 12:58:46;;;;;;;5.22;4.70;;;;;;;;;;10091008;28;20499;-65
2023/04/18 13:03:40;;;;;;;3.63;3.33;;;;;;;;;;10101660;28;20183;-65
2023/04/18 13:08:33;;;;;;;3.40;3.10;;;;;;;;;;10088731;28;20402;-65
2023/04/18 13:13:27;;;;;;;4.07;2.97;;;;;;;;;;10055656;28;20497;-65
2023/04/18 13:18:20;;;;;;;3.25;2.83;;;;;;;;;;10076202;28;20493;-65
2023/04/18 13:23:14;;;;;;;2.13;1.92;;;;;;;;;;10100550;28;20072;-65
2023/04/18 13:28:07;;;;;;;4.63;2.60;;;;;;;;;;10091116;28;20048;-65
2023/04/18 13:33:01;;;;;;;3.38;2.75;;;;;;;;;;10089055;28;20496;-64
2023/04/18 13:37:55;;;;;;;3.00;2.50;;;;;;;;;;10085501;28;20076;-65
2023/04/18 13:42:47;;;;;;;4.90;3.10;;;;;;;;;;10077856;28;20095;-64
2023/04/18 13:47:41;;;;;;;2.35;2.13;;;;;;;;;;10103674;28;20458;-64
2023/04/18 13:52:35;;;;;;;7.00;2.70;;;;;;;;;;10117004;28;20037;-65
2023/04/18 13:57:30;;;;;;;5.32;2.72;;;;;;;;;;10112569;28;20075;-64
2023/04/18 14:02:24;;;;;;;3.38;3.00;;;;;;;;;;10138364;28;20045;-65
2023/04/18 14:07:19;;;;;;;3.90;2.72;;;;;;;;;;10137195;28;20579;-65
2023/04/18 14:12:12;;;;;;;8.43;2.70;;;;;;;;;;10113970;28;20132;-65
2023/04/18 14:17:06;;;;;;;3.47;2.13;;;;;;;;;;10125066;28;20407;-64
2023/04/18 14:21:59;;;;;;;5.25;2.25;;;;;;;;;;10118527;28;20500;-64
2023/04/18 14:26:53;;;;;;;2.85;1.60;;;;;;;;;;10144780;28;20106;-64
2023/04/18 14:31:47;;;;;;;1.50;1.40;;;;;;;;;;10109195;28;20059;-64
2023/04/18 14:36:41;;;;;;;3.58;1.92;;;;;;;;;;10113732;28;20110;-64
2023/04/18 14:41:35;;;;;;;4.22;1.92;;;;;;;;;;10116471;28;20060;-64
2023/04/18 14:46:30;;;;;;;6.97;2.05;;;;;;;;;;10111722;28;20053;-63
2023/04/18 14:51:24;;;;;;;2.90;2.65;;;;;;;;;;10124959;28;20148;-63
2023/04/18 14:56:22;;;;;;;2.78;2.13;;;;;;;;;;10139811;28;20135;-65
2023/04/18 15:01:17;;;;;;;5.72;2.72;;;;;;;;;;10138947;28;20493;-63
2023/04/18 15:06:11;;;;;;;2.60;1.90;;;;;;;;;;10130569;28;20044;-64
2023/04/18 15:11:07;;;;;;;3.15;2.65;;;;;;;;;;10126873;28;20492;-64
2023/04/18 15:16:00;;;;;;;2.58;2.17;;;;;;;;;;10118318;28;20478;-65
2023/04/18 15:20:55;;;;;;;2.40;2.13;;;;;;;;;;10124083;28;20067;-65
2023/04/18 15:25:49;;;;;;;2.10;1.80;;;;;;;;;;10097335;28;20500;-64
2023/04/18 15:30:43;;;;;;;2.03;1.67;;;;;;;;;;10128377;28;20392;-64
2023/04/18 15:35:37;;;;;;;1.85;1.60;;;;;;;;;;10136086;28;20048;-64
2023/04/18 15:40:31;;;;;;;1.80;1.70;;;;;;;;;;10141369;28;20053;-64
2023/04/18 15:45:25;;;;;;;1.52;1.33;;;;;;;;;;10118546;28;20049;-64
2023/04/18 15:50:19;;;;;;;2.00;1.80;;;;;;;;;;10113120;28;20049;-65
2023/04/18 15:55:13;;;;;;;4.82;2.33;;;;;;;;;;10111648;28;20053;-64
2023/04/18 16:00:14;;;;;;;2.20;1.88;;;;;;;;;;10112456;28;20045;-65
2023/04/18 16:05:11;;;;;;;1.83;1.73;;;;;;;;;;10109182;28;20124;-64
2023/04/18 16:10:09;;;;;;;1.77;1.65;;;;;;;;;;10111558;28;20503;-64
2023/04/18 16:15:06;;;;;;;4.18;2.17;;;;;;;;;;10093185;28;20381;-65
2023/04/18 16:19:59;;;;;;;2.63;1.80;;;;;;;;;;10111826;28;20407;-65
2023/04/18 16:24:52;;;;;;;4.70;1.83;;;;;;;;;;10114260;28;20088;-64
2023/04/18 16:29:46;;;;;;;2.08;1.50;;;;;;;;;;10111545;28;20487;-64
2023/04/18 16:34:39;;;;;;;5.20;1.48;;;;;;;;;;10104123;28;20053;-63
2023/04/18 16:39:33;;;;;;;2.55;1.52;;;;;;;;;;10107004;28;20476;-65
2023/04/18 16:44:29;;;;;;;3.53;1.63;;;;;;;;;;10100203;28;20110;-64
2023/04/18 16:49:24;;;;;;;1.50;1.40;;;;;;;;;;10140918;28;20061;-64
2023/04/18 16:54:19;;;;;;;1.70;1.50;;;;;;;;;;10130213;28;20044;-64
2023/04/18 16:59:13;;;;;;;2.70;1.52;;;;;;;;;;10123711;28;20511;-64
2023/04/18 17:04:06;;;;;;;2.90;1.65;;;;;;;;;;10120837;28;20421;-64
2023/04/18 17:09:00;;;;;;;4.30;1.60;;;;;;;;;;10110163;28;20094;-64
2023/04/18 17:13:53;;;;;;;4.72;2.20;;;;;;;;;;10109886;28;20088;-64
2023/04/18 17:18:47;;;;;;;3.97;2.30;;;;;;;;;;10110548;28;20053;-64
2023/04/18 17:23:41;;;;;;;7.25;2.00;;;;;;;;;;10114859;28;20074;-65
2023/04/18 17:28:35;;;;;;;5.35;2.10;;;;;;;;;;10117232;28;20045;-65
2023/04/18 17:33:29;;;;;;;2.40;1.90;;;;;;;;;;10115399;28;20073;-66
2023/04/18 17:38:22;;;;;;;2.38;2.17;;;;;;;;;;10116926;28;20069;-65
2023/04/18 17:43:15;;;;;;;3.30;2.55;;;;;;;;;;10111822;28;20072;-65
2023/04/18 17:48:10;;;;;;;6.95;2.67;;;;;;;;;;10089648;28;20077;-64
2023/04/18 17:53:03;;;;;;;3.88;2.10;;;;;;;;;;10073492;28;20107;-65
2023/04/18 17:57:58;;;;;;;4.40;2.10;;;;;;;;;;10085189;28;20057;-68
2023/04/18 18:02:51;;;;;;;5.15;2.70;;;;;;;;;;10087908;28;20053;-68
2023/04/18 18:07:46;;;;;;;6.32;2.53;;;;;;;;;;10070684;28;20554;-68
2023/04/18 18:12:41;;;;;;;4.50;2.92;;;;;;;;;;10079313;28;20048;-68
2023/04/18 18:17:35;;;;;;;7.32;3.20;;;;;;;;;;10076587;28;20409;-68
2023/04/18 18:22:28;;;;;;;4.28;2.90;;;;;;;;;;10079141;28;20050;-67
2023/04/18 18:27:22;;;;;;;3.70;3.03;;;;;;;;;;10073161;28;20526;-68
2023/04/18 18:32:15;;;;;;;4.20;3.55;;;;;;;;;;10092986;28;20132;-69
2023/04/18 18:37:08;;;;;;;5.32;3.55;;;;;;;;;;10076336;28;20461;-67
2023/04/18 18:42:02;;;;;;;4.78;3.53;;;;;;;;;;10071644;28;20053;-68
2023/04/18 18:46:56;;;;;;;5.50;4.75;;;;;;;;;;10049350;28;20057;-67
2023/04/18 18:51:49;;;;;;;9.45;7.72;;;;;;;;;;10078242;28;20143;-67
2023/04/18 18:56:44;;;;;;;9.25;7.28;;;;;;;;;;10094820;28;20105;-64
2023/04/18 19:01:38;;;;;;;11.60;10.50;;;;;;;;;;10104876;28;20132;-64
2023/04/18 19:06:31;;;;;;;9.70;8.82;;;;;;;;;;10102806;28;20135;-63
2023/04/18 19:11:25;;;;;;;15.82;6.30;;;;;;;;;;10112009;28;20037;-64
2023/04/18 19:16:19;;;;;;;6.57;5.22;;;;;;;;;;10081325;28;20552;-64
2023/04/18 19:21:13;;;;;;;8.43;5.43;;;;;;;;;;10099573;28;20124;-66
2023/04/18 19:26:06;;;;;;;7.85;6.00;;;;;;;;;;10103941;28;20052;-64
2023/04/18 19:31:00;;;;;;;8.38;4.50;;;;;;;;;;10104858;28;20103;-64
2023/04/18 19:35:53;;;;;;;4.55;3.85;;;;;;;;;;10096855;28;20499;-65
2023/04/18 19:40:46;;;;;;;5.15;4.40;;;;;;;;;;10101533;28;20060;-65
2023/04/18 19:45:39;;;;;;;4.93;3.95;;;;;;;;;;10109412;28;20480;-65
2023/04/18 19:50:33;;;;;;;11.82;4.82;;;;;;;;;;10146834;28;20051;-66
2023/04/18 19:55:26;;;;;;;8.43;4.18;;;;;;;;;;10135648;28;20082;-65
2023/04/18 20:00:20;;;;;;;8.93;4.28;;;;;;;;;;10136758;28;20491;-66
2023/04/18 20:05:14;;;;;;;6.80;3.65;;;;;;;;;;10157290;28;20132;-64
2023/04/18 20:10:09;;;;;;;4.53;4.05;;;;;;;;;;10149663;28;20056;-64
2023/04/18 20:15:02;;;;;;;5.18;3.63;;;;;;;;;;10145216;28;20045;-64
2023/04/18 20:19:58;;;;;;;7.50;5.63;;;;;;;;;;10151562;28;20052;-64
2023/04/18 20:24:52;;;;;;;6.45;4.40;;;;;;;;;;10147570;28;20083;-63
2023/04/18 20:29:46;;;;;;;7.18;4.45;;;;;;;;;;10155553;28;20060;-63
2023/04/18 20:34:42;;;;;;;8.25;4.00;;;;;;;;;;10163618;28;20131;-64
2023/04/18 20:39:39;;;;;;;4.40;3.90;;;;;;;;;;10153520;28;20049;-63
2023/04/18 20:44:33;;;;;;;5.78;3.85;;;;;;;;;;10152826;28;20072;-64
2023/04/18 20:49:28;;;;;;;8.93;4.88;;;;;;;;;;10109596;28;20151;-62
2023/04/18 20:54:23;;;;;;;6.60;5.75;;;;;;;;;;10136790;28;20047;-64
2023/04/18 20:59:19;;;;;;;10.98;4.93;;;;;;;;;;10155533;28;20135;-62
2023/04/18 21:04:13;;;;;;;6.88;3.90;;;;;;;;;;10146229;28;20102;-63
2023/04/18 21:09:08;;;;;;;4.32;3.72;;;;;;;;;;10148040;28;20105;-62
2023/04/18 21:14:04;;;;;;;5.22;4.38;;;;;;;;;;10155577;28;20101;-62
2023/04/18 21:18:58;;;;;;;7.72;4.53;;;;;;;;;;10129688;28;20048;-61
2023/04/18 21:23:52;;;;;;;6.30;4.60;;;;;;;;;;10132897;28;20057;-61
2023/04/18 21:28:56;;;;;;;5.13;4.28;;;;;;;;;;10134551;28;20059;-61
2023/04/18 21:33:52;;;;;;;4.93;4.35;;;;;;;;;;10135226;28;20551;-61
2023/04/18 21:38:46;;;;;;;5.80;5.10;;;;;;;;;;10129863;28;20055;-60
2023/04/18 21:43:39;;;;;;;6.22;4.40;;;;;;;;;;10140469;28;20098;-61
2023/04/18 21:48:33;;;;;;;8.00;5.32;;;;;;;;;;10147397;28;20418;-61
2023/04/18 21:53:27;;;;;;;10.80;5.38;;;;;;;;;;10142181;28;20121;-62
2023/04/18 21:58:20;;;;;;;6.43;4.68;;;;;;;;;;10149403;28;20139;-61
2023/04/18 22:03:13;;;;;;;4.40;4.00;;;;;;;;;;10149408;28;20094;-62
2023/04/18 22:08:08;;;;;;;4.97;3.10;;;;;;;;;;10143572;28;20044;-63
2023/04/18 22:13:03;;;;;;;5.20;3.53;;;;;;;;;;10141805;28;20135;-63
2023/04/18 22:17:57;;;;;;;5.88;4.63;;;;;;;;;;10135261;28;20103;-63
2023/04/18 22:22:51;;;;;;;6.13;4.80;;;;;;;;;;10130112;28;20608;-61
2023/04/18 22:27:45;;;;;;;8.25;6.15;;;;;;;;;;10121764;28;20057;-63
2023/04/18 22:32:40;;;;;;;7.30;5.53;;;;;;;;;;10122224;28;20071;-63
2023/04/18 22:37:36;;;;;;;6.75;4.70;;;;;;;;;;10117519;28;20044;-63
2023/04/18 22:42:29;;;;;;;5.95;4.72;;;;;;;;;;10119699;28;20096;-63
2023/04/18 22:47:23;;;;;;;5.68;4.85;;;;;;;;;;10100816;28;20095;-63
2023/04/18 22:52:17;;;;;;;7.97;5.45;;;;;;;;;;10078773;28;20060;-64
2023/04/18 22:57:11;;;;;;;6.13;4.90;;;;;;;;;;10084045;28;20495;-63
2023/04/18 23:02:06;;;;;;;4.25;3.85;;;;;;;;;;10089634;28;20054;-64
2023/04/18 23:06:59;;;;;;;4.63;3.95;;;;;;;;;;10089222;28;20048;-63
2023/04/18 23:11:53;;;;;;;4.53;3.85;;;;;;;;;;10080985;28;20478;-64
2023/04/18 23:16:46;;;;;;;6.18;4.50;;;;;;;;;;10084308;28;20522;-62
2023/04/18 23:21:40;;;;;;;6.93;4.22;;;;;;;;;;10075017;28;20404;-62
2023/04/18 23:26:33;;;;;;;7.30;4.40;;;;;;;;;;10099648;28;20438;-62
2023/04/18 23:31:26;;;;;;;5.60;4.60;;;;;;;;;;10080550;28;20065;-62
2023/04/18 23:36:21;;;;;;;6.30;4.43;;;;;;;;;;10078878;28;20054;-62
2023/04/18 23:41:14;;;;;;;5.72;4.13;;;;;;;;;;10079074;28;20041;-62
2023/04/18 23:46:07;;;;;;;5.68;4.13;;;;;;;;;;10072321;28;20555;-62
2023/04/18 23:51:01;;;;;;;4.10;3.70;;;;;;;;;;10081169;28;20037;-62
2023/04/18 23:55:54;;;;;;;4.35;3.95;;;;;;;;;;10074996;28;20092;-62
